Date,TemperatureHighF,TemperatureAvgF,TemperatureLowF,DewpointHighF,DewpointAvgF,DewpointLowF,HumidityHigh,HumidityAvg,HumidityLow,PressureMaxIn,PressureMinIn,WindSpeedMaxMPH,WindSpeedAvgMPH,GustSpeedMaxMPH,PrecipitationSumIn
2014-1-1,12.3,0.4,-10.3,-1.9,-8.8,-17.3,74,65,49,30.49,30.38,9,2,11,0.00
2014-1-2,14.0,1.0,-8.6,2.4,-7.0,-14.2,78,69,54,30.41,30.32,14,2,14,0.00
2014-1-3,19.4,3.4,-12.5,12.0,-4.5,-18.4,79,69,55,30.39,29.66,23,6,34,0.00
2014-1-4,26.1,17.5,0.7,20.5,11.7,-3.5,89,78,63,30.06,29.55,19,4,24,0.00
2014-1-5,9.3,1.7,-7.0,-0.9,-5.8,-12.0,88,71,57,30.21,29.97,14,2,17,0.00
2014-1-6,-2.6,-7.3,-15.1,-10.6,-19.5,-28.3,73,54,44,29.98,29.89,19,7,24,0.00
2014-1-7,-0.4,-10.0,-17.0,-13.8,-20.8,-28.1,67,58,51,30.19,29.94,14,6,20,0.00
2014-1-8,14.1,-4.3,-19.0,-0.7,-13.0,-26.0,75,66,48,30.49,30.19,9,2,10,0.00
2014-1-9,16.5,-1.3,-19.9,5.7,-9.9,-26.9,77,67,42,30.50,30.12,16,2,18,0.00
2014-1-10,32.2,24.5,7.7,31.5,21.3,1.4,98,87,74,30.12,29.47,12,2,20,0.00
2014-1-11,32.1,30.5,29.1,31.3,29.0,25.7,99,94,87,29.53,29.27,11,2,15,0.00
2014-1-12,33.1,29.5,24.5,30.5,26.7,22.5,94,89,85,29.65,29.45,18,5,26,0.00
2014-1-13,35.0,31.1,26.4,31.4,27.0,17.9,96,85,69,29.60,29.38,13,2,14,0.00
2014-1-14,26.4,22.4,18.8,22.0,18.8,14.5,92,86,70,29.78,29.59,17,3,20,0.00
2014-1-15,19.1,14.6,11.2,14.5,8.0,4.4,85,75,65,29.94,29.66,15,4,19,0.00
2014-1-16,25.6,20.6,11.2,23.0,17.8,6.3,94,89,79,29.66,29.39,20,4,22,0.00
2014-1-17,26.2,20.5,11.2,24.9,17.1,6.2,95,87,77,29.87,29.54,13,2,17,0.00
2014-1-18,22.5,8.6,-3.7,13.4,3.5,-8.3,89,80,65,29.87,29.63,7,1,10,0.00
2014-1-19,27.8,18.5,9.3,23.3,13.7,3.3,88,81,75,29.62,29.38,12,4,14,0.00
2014-1-20,14.0,6.7,-3.5,4.2,-2.0,-12.3,81,67,54,30.23,29.62,14,4,20,0.00
2014-1-21,8.6,-2.6,-14.0,-5.5,-11.5,-20.1,83,66,48,30.31,30.13,12,3,16,0.00
2014-1-22,6.0,2.0,-8.8,2.7,-2.6,-12.3,90,80,70,30.13,29.84,6,2,13,0.00
2014-1-23,11.7,-0.0,-15.3,3.8,-7.2,-22.0,86,72,53,30.47,30.07,9,2,18,0.00
2014-1-24,18.4,5.8,-13.3,14.7,-0.9,-18.9,85,73,65,30.29,29.21,18,6,18,0.00
2014-1-25,18.9,5.2,-5.6,16.5,-5.2,-14.5,90,62,39,29.72,29.20,16,4,24,0.00
2014-1-26,7.6,1.4,-4.5,1.1,-4.7,-11.9,80,75,62,29.69,29.27,16,2,24,0.00
2014-1-27,0.3,-6.0,-15.6,-9.5,-18.0,-23.6,69,55,39,30.20,29.59,16,4,24,0.00
2014-1-28,4.8,-6.3,-18.7,-11.9,-18.6,-26.2,68,55,39,30.19,29.89,14,5,20,0.00
2014-1-29,17.7,5.4,-5.4,3.9,-6.4,-13.8,75,58,35,29.93,29.75,17,5,21,0.00
2014-1-30,24.2,19.5,7.9,21.4,14.1,2.7,90,79,64,29.79,29.46,13,4,19,0.00
2014-1-31,11.7,1.6,-12.0,2.1,-5.7,-17.9,83,71,53,30.09,29.80,11,2,12,0.00
2014-2-1,14.3,1.6,-15.8,7.8,-4.6,-22.1,84,75,59,30.11,29.95,3,1,5,0.00
2014-2-2,16.7,3.7,-11.2,7.0,-1.7,-16.9,89,78,60,30.25,30.03,7,1,10,0.00
2014-2-3,14.0,-0.8,-18.1,3.9,-8.7,-24.9,77,69,53,30.31,30.24,9,2,12,0.00
2014-2-4,24.7,6.7,-12.0,9.4,-1.3,-17.9,79,70,51,30.44,30.29,7,1,12,0.00
2014-2-5,11.9,7.2,-0.4,6.7,-0.2,-4.8,84,72,55,30.38,30.31,12,2,19,0.00
2014-2-6,14.0,2.6,-6.5,-4.9,-7.5,-10.8,86,64,39,30.36,30.09,12,3,15,0.00
2014-2-7,18.9,3.9,-8.9,-2.6,-8.6,-15.7,75,57,36,30.14,29.99,17,4,18,0.00
2014-2-8,15.4,1.0,-13.0,1.7,-7.9,-19.1,79,66,45,30.21,30.11,7,2,13,0.00
2014-2-9,20.2,6.3,-7.5,9.3,-1.0,-13.0,81,72,55,30.23,30.05,11,1,15,0.00
2014-2-10,11.7,-0.3,-13.8,-3.8,-9.9,-20.2,80,64,40,30.45,30.22,11,2,13,0.00
2014-2-11,11.2,-3.1,-21.4,-3.2,-13.3,-28.6,73,62,46,30.51,30.24,13,3,20,0.00
2014-2-12,18.3,8.5,-1.0,8.2,0.8,-5.4,82,71,55,30.24,30.00,12,3,14,0.00
2014-2-13,25.0,13.9,-2.8,23.5,10.9,-7.7,94,88,79,30.00,29.43,20,3,25,0.00
2014-2-14,21.3,13.2,-1.8,19.9,9.0,-8.0,94,83,70,29.92,29.43,16,4,22,0.00
2014-2-15,15.6,4.3,-10.3,6.5,-2.4,-16.0,84,74,60,30.05,29.92,7,2,12,0.00
2014-2-16,21.0,9.4,-6.3,8.6,2.3,-11.7,85,73,50,30.35,29.98,12,2,13,0.00
2014-2-17,21.0,12.1,-8.4,15.9,7.8,-14.2,90,82,74,30.33,29.76,20,5,21,0.00
2014-2-18,28.1,18.1,5.6,26.3,14.9,2.0,93,87,78,29.81,29.56,16,2,16,0.00
2014-2-19,46.4,26.7,5.2,26.2,17.2,1.7,93,71,31,29.84,29.56,13,2,17,0.00
2014-2-20,38.8,29.4,18.0,32.1,24.5,15.6,96,83,59,29.86,29.06,22,4,25,0.00
2014-2-21,35.3,25.4,15.7,34.8,20.5,6.7,98,82,67,29.45,28.87,28,12,41,0.00
2014-2-22,25.4,16.1,9.3,9.3,5.1,1.4,72,62,49,29.86,29.45,22,7,23,0.00
2014-2-23,18.6,9.6,1.1,3.9,0.7,-4.3,81,67,49,30.02,29.86,14,3,19,0.00
2014-2-24,16.4,5.9,-5.4,1.9,-3.0,-10.5,82,67,47,30.19,30.02,16,2,18,0.00
2014-2-25,10.3,3.1,-3.7,-1.6,-6.3,-12.7,85,66,48,30.16,30.02,15,4,19,0.00
2014-2-26,10.1,-0.5,-14.8,-0.3,-10.4,-21.1,82,64,37,30.09,29.48,17,4,19,0.00
2014-2-27,5.0,-2.7,-19.9,-4.2,-16.5,-26.3,78,53,27,30.22,29.53,20,4,22,0.00
2014-2-28,11.7,-5.2,-26.2,6.1,-13.3,-33.4,84,69,35,30.23,29.99,10,2,14,0.00
2014-3-1,12.9,5.6,-2.2,4.7,-4.0,-12.3,79,65,39,30.40,29.99,10,2,15,0.00
2014-3-2,13.3,-2.4,-18.7,-11.3,-17.0,-25.7,73,52,25,30.44,30.31,11,2,16,0.00
2014-3-3,11.4,-0.5,-22.0,5.2,-10.5,-27.6,82,63,42,30.51,30.27,11,3,16,0.00
2014-3-4,19.2,11.7,-5.2,11.3,6.0,-9.8,87,78,64,30.36,30.18,5,1,6,0.00
2014-3-5,20.6,3.3,-13.5,-0.5,-7.0,-19.6,87,64,34,30.59,30.36,8,2,11,0.00
2014-3-6,24.8,11.6,-6.8,14.4,6.0,-10.8,90,78,60,30.52,29.98,13,3,20,0.00
2014-3-7,31.2,24.7,17.8,26.2,18.8,13.7,91,78,64,30.04,29.79,12,3,19,0.00
2014-3-8,28.5,18.6,1.7,18.6,8.5,-2.8,84,66,41,30.24,30.04,11,2,20,0.00
2014-3-9,34.3,16.3,-3.5,23.5,9.3,-8.4,86,74,59,30.15,29.61,13,2,17,0.00
2014-3-10,58.9,34.9,15.7,34.9,24.4,13.3,93,70,28,29.62,29.34,21,2,28,0.00
2014-3-11,42.5,34.6,26.4,29.6,25.8,17.2,85,70,56,29.90,29.50,13,3,18,0.00
2014-3-12,26.1,11.0,-2.8,18.0,-0.8,-8.3,77,59,39,30.15,29.90,18,4,20,0.00
2014-3-13,29.5,11.0,-12.0,22.5,4.6,-16.6,87,75,61,30.13,29.62,10,2,13,0.00
2014-3-14,43.2,32.0,24.5,36.7,29.0,21.8,97,89,68,29.67,29.33,11,2,18,0.00
2014-3-15,27.6,17.5,5.0,24.2,8.9,-1.2,87,69,50,30.45,29.68,14,4,21,0.00
2014-3-16,18.8,5.5,-9.1,3.1,-3.9,-14.6,82,66,45,30.55,30.24,10,2,16,0.00
2014-3-17,22.7,12.4,-2.8,18.8,7.0,-7.7,90,79,56,30.22,29.85,20,3,28,0.00
2014-3-18,32.4,26.4,18.4,26.4,20.3,15.7,91,78,65,29.96,29.88,12,4,16,0.00
2014-3-19,32.5,30.0,27.9,30.3,27.8,25.3,95,91,87,29.89,29.60,14,2,16,0.00
2014-3-20,36.3,29.0,18.1,25.9,21.4,15.9,93,75,51,30.00,29.75,16,2,16,0.00
2014-3-21,35.2,24.3,7.2,28.2,19.3,3.9,94,82,65,30.00,29.79,17,2,18,0.00
2014-3-22,30.0,21.1,6.3,28.5,13.2,-1.1,95,73,48,30.35,29.80,15,3,18,0.00
2014-3-23,23.1,10.5,-1.4,7.7,1.1,-5.8,85,67,45,30.41,30.32,10,2,15,0.00
2014-3-24,30.0,10.3,-12.5,5.3,-3.5,-18.4,81,57,27,30.33,29.96,15,3,20,0.00
2014-3-25,21.1,11.4,-2.0,8.7,1.3,-7.2,84,65,38,30.17,29.91,15,3,22,0.00
2014-3-26,26.7,13.3,-6.8,20.1,4.1,-11.8,81,68,49,30.23,29.97,17,4,23,0.00
2014-3-27,33.4,30.8,25.6,32.9,29.7,20.2,99,96,79,29.96,29.50,13,4,20,0.00
2014-3-28,37.0,30.5,23.8,31.0,25.0,20.0,99,81,55,30.25,29.53,16,3,17,0.00
2014-3-29,41.5,28.9,19.2,21.5,17.3,5.7,92,66,30,30.32,30.20,9,1,11,0.00
2014-3-30,39.1,27.1,11.9,29.5,21.8,9.3,91,81,63,30.25,30.00,14,3,18,0.00
2014-3-31,48.3,37.1,26.4,37.7,29.1,24.7,94,74,52,30.04,29.68,14,4,19,0.06
2014-4-1,42.6,35.4,24.8,38.0,28.5,14.2,90,76,62,29.96,29.46,17,7,24,0.02
2014-4-2,41.3,29.4,17.7,24.2,17.9,11.5,80,63,40,30.24,29.97,15,3,19,0.00
2014-4-3,38.9,29.3,18.8,24.3,20.4,15.0,86,70,52,30.26,29.93,15,3,21,0.00
2014-4-4,34.6,31.0,24.4,32.1,27.8,21.7,96,88,66,29.87,29.43,16,4,23,0.25
2014-4-5,39.8,29.0,16.4,28.9,22.4,13.5,90,77,50,30.08,29.77,14,4,20,0.22
2014-4-6,49.8,36.3,25.0,34.1,29.1,23.7,97,77,51,30.02,29.85,17,4,23,0.01
2014-4-7,55.4,39.8,28.2,39.0,32.6,27.0,97,77,51,29.87,29.62,10,2,10,0.00
2014-4-8,48.2,39.4,27.3,36.2,29.9,21.4,91,70,38,29.87,29.59,16,3,20,0.00
2014-4-9,49.6,35.5,20.2,31.6,26.0,18.3,94,71,41,29.90,29.53,15,4,22,0.00
2014-4-10,59.6,48.3,33.1,36.4,27.6,18.0,88,49,22,29.81,29.37,23,5,24,0.00
2014-4-11,49.8,37.6,25.1,38.4,28.1,22.0,92,71,37,29.96,29.81,11,2,15,0.00
2014-4-12,38.3,35.4,29.8,37.0,33.7,27.8,96,94,88,30.07,29.81,11,3,15,0.10
2014-4-13,54.5,41.1,35.2,43.5,37.0,33.5,99,86,60,29.82,29.70,14,2,15,0.02
2014-4-14,35.6,27.4,18.9,34.3,24.1,13.5,97,87,74,29.99,29.52,16,5,24,0.26
2014-4-15,30.4,21.0,9.5,21.2,13.2,5.7,86,72,44,30.19,29.97,12,2,19,0.06
2014-4-16,34.6,20.6,5.0,28.9,15.6,1.2,94,81,58,30.33,30.19,11,3,16,0.03
2014-4-17,43.2,34.5,29.7,34.0,30.7,26.3,95,86,66,30.25,30.15,17,3,21,0.27
2014-4-18,44.9,36.2,27.2,33.3,26.9,24.1,94,71,46,30.42,30.23,10,2,14,0.00
2014-4-19,46.4,34.8,22.9,33.3,27.8,21.2,94,77,52,30.46,30.18,17,4,19,0.03
2014-4-20,43.2,38.7,35.5,41.0,36.9,33.4,98,93,88,30.19,29.98,13,3,16,0.26
2014-4-21,54.8,42.3,35.0,47.9,40.6,34.5,99,94,73,29.98,29.69,10,2,16,0.14
2014-4-22,45.8,38.7,27.6,34.6,29.2,23.9,86,69,54,30.07,29.78,17,5,21,0.00
2014-4-23,52.8,37.4,23.8,31.4,23.0,14.6,96,62,24,30.16,30.06,11,2,13,0.00
2014-4-24,46.4,37.2,30.1,36.5,28.4,22.2,96,73,39,30.10,29.82,14,3,19,0.24
2014-4-25,47.7,37.6,32.8,40.5,35.0,29.6,97,90,71,29.80,29.64,14,3,19,0.32
2014-4-26,48.9,38.5,27.8,37.0,30.3,24.0,95,75,42,30.16,29.77,13,3,20,0.00
2014-4-27,47.6,38.4,26.0,29.5,25.1,22.2,92,62,38,30.20,30.09,23,5,23,0.01
2014-4-28,51.4,45.2,39.1,30.0,25.3,18.8,63,46,31,30.12,29.88,21,8,29,0.00
2014-4-29,47.6,41.4,37.5,42.1,37.0,25.4,98,86,42,29.88,29.61,17,5,21,0.34
2014-4-30,52.5,44.0,39.6,51.5,43.0,39.3,100,97,80,29.70,29.66,11,2,11,0.08
2014-5-1,44.3,41.5,38.9,42.9,40.8,38.6,100,98,90,29.68,29.58,8,1,11,0.44
2014-5-2,49.2,43.1,37.8,43.9,40.6,36.2,99,92,72,29.64,29.59,9,2,13,0.04
2014-5-3,51.7,43.3,31.8,44.9,36.8,29.5,99,80,49,29.75,29.54,25,3,25,0.08
2014-5-4,50.5,41.1,31.3,38.0,33.8,27.9,95,76,56,30.09,29.74,13,3,20,0.05
2014-5-5,53.9,41.2,28.8,37.9,32.1,27.0,97,73,43,30.13,29.99,8,2,12,0.00
2014-5-6,55.0,43.1,27.6,34.3,29.5,25.9,95,62,37,30.13,30.01,10,3,15,0.00
2014-5-7,55.4,46.5,39.3,37.5,33.2,28.8,72,60,50,30.07,29.91,17,5,18,0.00
2014-5-8,59.9,49.6,41.6,50.9,44.9,35.1,97,84,66,29.95,29.64,16,3,16,0.31
2014-5-9,73.5,54.9,46.8,59.1,49.3,41.5,100,84,46,29.64,29.35,22,5,29,0.37
2014-5-10,72.3,56.8,42.2,42.0,35.5,27.3,77,50,19,29.86,29.58,17,5,23,0.00
2014-5-11,68.1,53.7,39.1,55.0,42.3,35.1,99,70,37,29.95,29.86,10,2,13,0.03
2014-5-12,54.4,48.6,45.1,46.8,44.8,42.8,98,87,67,29.94,29.79,13,3,17,0.27
2014-5-13,61.8,53.1,46.0,56.0,47.8,42.9,100,84,54,30.01,29.67,15,3,15,0.02
2014-5-14,59.6,49.2,38.6,45.4,37.1,29.7,99,67,35,30.15,30.01,13,3,14,0.00
2014-5-15,43.5,39.4,34.7,34.3,31.8,29.4,93,75,62,30.11,29.92,17,4,22,0.02
2014-5-16,47.1,39.6,32.5,37.6,32.9,27.9,94,78,54,30.03,29.96,13,2,14,0.01
2014-5-17,55.1,41.2,27.0,39.0,32.5,25.8,97,74,39,30.02,29.93,16,3,25,0.00
2014-5-18,69.1,47.3,28.7,47.6,37.2,27.5,98,72,35,30.05,29.97,14,3,18,0.00
2014-5-19,68.4,52.7,36.0,47.4,41.2,34.3,98,69,39,30.12,29.98,20,4,21,0.05
2014-5-20,64.7,52.5,44.8,53.5,48.9,43.2,99,88,65,30.03,29.79,16,4,24,0.62
2014-5-21,71.5,55.6,44.5,55.5,48.6,42.9,100,80,44,29.90,29.74,10,2,19,0.01
2014-5-22,63.5,54.3,47.0,49.2,45.2,41.8,93,73,46,30.09,29.90,10,2,13,0.00
2014-5-23,73.5,58.7,43.3,46.2,42.9,37.7,92,61,28,30.16,30.08,10,2,17,0.00
2014-5-24,74.4,59.1,40.8,54.0,47.0,39.8,97,68,42,30.15,30.00,15,3,19,0.00
2014-5-25,78.1,63.3,47.0,54.2,49.0,45.4,96,64,32,30.03,29.89,15,4,22,0.00
2014-5-26,79.6,65.3,52.2,65.8,57.6,47.8,98,78,53,29.90,29.74,12,2,19,0.02
2014-5-27,75.3,62.8,48.0,62.5,48.5,35.0,99,65,27,29.95,29.80,14,2,15,0.00
2014-5-28,73.3,57.9,42.5,52.0,45.2,39.5,92,66,39,30.09,29.95,9,2,13,0.00
2014-5-29,75.3,60.1,41.2,55.2,48.1,40.2,99,68,35,30.15,30.05,9,2,12,0.00
2014-5-30,80.1,64.8,46.2,57.2,50.6,44.1,97,66,30,30.15,30.07,9,2,12,0.00
2014-5-31,72.8,62.0,48.0,57.8,52.7,47.2,99,74,54,30.15,29.99,14,3,16,0.00
2014-6-1,71.1,60.7,52.0,63.4,56.1,50.0,97,86,64,29.99,29.75,16,3,16,0.21
2014-6-2,75.8,63.0,56.2,68.1,61.3,55.9,99,94,72,29.77,29.49,12,3,18,0.28
2014-6-3,72.7,63.0,50.5,61.7,52.1,46.4,98,70,40,29.84,29.49,21,5,24,0.01
2014-6-4,76.1,59.3,42.5,52.5,44.2,32.5,99,64,22,29.89,29.82,7,2,15,0.00
2014-6-5,73.7,58.7,40.1,50.6,44.0,38.6,96,63,35,29.96,29.84,16,2,19,0.00
2014-6-6,77.4,63.0,52.3,63.8,54.6,46.2,95,75,50,29.90,29.84,14,2,15,0.06
2014-6-7,75.4,58.7,49.4,61.2,53.3,48.9,99,84,50,29.94,29.85,10,2,14,0.07
2014-6-8,70.4,58.6,44.3,53.4,47.2,39.2,99,71,34,30.04,29.92,10,2,16,0.19
2014-6-9,72.7,54.9,36.3,46.7,41.4,33.5,98,66,24,30.06,29.94,7,1,10,0.00
2014-6-10,75.3,60.2,41.6,53.7,46.8,40.3,97,66,36,29.98,29.88,9,1,11,0.00
2014-6-11,77.2,62.1,48.8,56.5,51.6,47.4,96,72,39,29.88,29.70,9,1,15,0.00
2014-6-12,72.0,59.6,50.1,59.6,53.2,44.1,98,81,47,29.72,29.57,21,4,25,0.00
2014-6-13,67.1,54.1,43.8,47.1,43.6,40.9,92,69,43,30.00,29.65,15,3,17,0.00
2014-6-14,62.9,52.0,36.8,49.4,44.0,36.0,99,76,54,30.09,29.98,12,2,14,0.00
2014-6-15,68.8,59.9,54.2,58.4,52.3,45.5,96,77,55,30.01,29.72,21,5,28,0.26
2014-6-16,81.6,66.1,50.1,64.0,56.9,49.6,99,76,42,29.89,29.79,18,4,23,0.00
2014-6-17,80.9,68.6,58.7,68.0,62.2,56.1,99,82,58,29.88,29.65,7,2,15,0.32
2014-6-18,73.7,62.5,55.3,67.7,58.8,52.7,99,88,70,30.07,29.85,10,1,11,0.93
2014-6-19,72.7,61.6,49.1,60.1,51.9,44.8,99,74,42,30.17,30.06,12,3,17,0.00
2014-6-20,60.4,54.6,49.8,54.4,49.4,38.8,99,85,49,30.06,29.95,11,2,14,0.73
2014-6-21,63.7,58.1,53.3,60.5,56.7,53.0,99,95,85,29.97,29.86,8,1,12,0.04
2014-6-22,75.4,64.2,57.6,64.2,59.3,55.5,99,85,63,29.90,29.79,11,2,17,0.00
2014-6-23,74.7,63.3,56.0,63.7,59.3,54.9,99,88,65,29.83,29.76,7,2,11,0.00
2014-6-24,72.8,63.7,51.3,67.7,61.3,50.2,99,92,81,29.93,29.77,5,1,13,0.29
2014-6-25,65.6,57.4,51.0,57.1,50.9,45.4,96,80,61,30.03,29.93,7,2,10,0.00
2014-6-26,74.4,61.5,46.2,57.3,50.1,41.0,91,67,50,30.07,29.98,8,1,12,0.00
2014-6-27,72.8,62.3,49.2,63.7,57.2,48.4,99,84,70,30.01,29.92,10,2,15,0.00
2014-6-28,80.5,69.7,60.1,69.2,63.9,58.8,96,83,66,29.96,29.83,13,4,21,0.00
2014-6-29,79.0,69.0,61.2,70.9,64.9,61.2,100,88,68,29.86,29.63,16,4,21,0.28
2014-6-30,86.5,72.5,61.2,70.2,65.5,60.4,99,81,46,29.68,29.41,16,4,21,0.00
2014-7-1,80.1,69.9,62.9,65.0,61.9,60.0,98,77,54,29.57,29.35,12,4,20,0.08
2014-7-2,70.9,59.2,47.3,63.1,49.5,37.8,99,73,39,29.96,29.57,9,2,15,0.00
2014-7-3,74.0,58.9,43.8,52.8,43.7,39.0,98,63,29,30.12,29.95,10,1,16,0.00
2014-7-4,77.4,62.5,43.6,53.3,47.8,42.0,96,64,33,30.23,30.12,12,3,16,0.00
2014-7-5,78.3,67.5,52.8,60.9,54.5,46.8,84,64,43,30.13,29.82,23,5,25,0.00
2014-7-6,70.1,66.1,63.4,67.7,63.6,60.5,99,92,74,29.82,29.49,9,3,14,0.75
2014-7-7,83.8,70.6,59.5,65.4,59.7,51.1,100,73,33,29.55,29.47,18,3,23,0.00
2014-7-8,62.4,56.1,50.8,55.4,52.1,49.7,99,87,75,29.74,29.44,10,2,15,0.49
2014-7-9,67.4,56.4,47.3,59.0,51.3,46.2,98,84,60,30.00,29.74,13,1,13,0.07
2014-7-10,70.3,58.3,42.8,58.7,51.8,42.0,100,81,57,30.11,30.00,17,2,18,0.00
2014-7-11,74.9,64.9,53.9,63.9,58.2,52.8,97,80,64,30.08,29.95,14,3,17,0.00
2014-7-12,77.9,68.6,59.9,68.7,62.2,57.5,97,81,70,29.97,29.71,8,2,12,0.05
2014-7-13,75.1,66.0,57.8,62.6,55.2,46.0,99,72,37,29.77,29.67,15,2,18,0.01
2014-7-14,70.3,59.1,50.8,61.2,54.5,49.6,96,86,57,29.79,29.70,7,1,11,0.21
2014-7-15,60.7,54.4,47.9,54.2,50.5,46.8,98,87,68,29.89,29.75,11,2,18,0.00
2014-7-16,73.0,59.8,48.6,55.5,49.2,46.0,95,71,41,29.93,29.87,11,2,12,0.00
2014-7-17,77.4,61.4,41.6,61.0,51.4,40.8,99,73,47,29.98,29.93,17,2,17,0.00
2014-7-18,75.1,64.6,49.9,61.6,55.6,49.1,99,75,54,30.09,29.98,14,3,20,0.00
2014-7-19,75.8,66.8,56.9,63.7,58.9,54.5,98,77,60,30.00,29.92,10,3,14,0.00
2014-7-20,79.2,68.1,55.4,65.9,59.5,54.0,98,75,53,29.94,29.87,14,3,19,0.00
2014-7-21,83.6,71.8,60.5,70.7,64.6,59.1,97,79,63,29.92,29.88,13,4,19,0.00
2014-7-22,88.2,73.1,61.6,74.0,64.6,55.0,94,76,51,29.98,29.66,16,4,21,0.02
2014-7-23,72.3,61.5,49.1,54.8,50.9,46.3,96,71,43,30.15,29.98,14,2,17,0.00
2014-7-24,74.9,59.6,42.8,55.4,49.3,41.7,99,73,41,30.14,29.93,11,2,16,0.00
2014-7-25,77.4,65.1,52.9,64.0,56.8,49.4,91,75,55,29.93,29.74,15,3,19,0.00
2014-7-26,79.9,69.4,62.1,68.8,64.4,59.6,97,85,69,29.74,29.60,8,2,14,0.00
2014-7-27,68.8,61.0,52.2,65.1,58.1,47.5,100,91,71,29.90,29.58,11,2,18,0.12
2014-7-28,72.7,59.2,44.9,56.3,49.3,42.9,95,72,45,30.03,29.91,9,1,14,0.00
2014-7-29,71.8,61.5,52.3,59.6,55.7,51.2,97,82,62,29.93,29.87,7,1,12,0.00
2014-7-30,73.2,58.1,44.5,57.3,51.2,44.0,100,81,41,29.98,29.89,9,1,14,0.00
2014-7-31,79.0,62.3,45.8,59.9,52.8,45.5,100,75,39,29.91,29.85,9,1,13,0.00
2014-8-1,78.6,63.2,46.5,58.7,52.0,45.9,99,72,38,30.04,29.91,7,1,13,0.00
2014-8-2,80.7,65.4,51.3,58.5,54.6,50.2,97,72,40,30.10,30.02,9,1,11,0.00
2014-8-3,78.5,63.8,56.7,66.9,61.2,55.5,99,92,63,30.03,29.96,10,1,15,0.41
2014-8-4,77.6,63.2,48.9,63.5,57.0,48.6,100,82,50,30.07,30.00,5,1,7,0.00
2014-8-5,78.1,65.2,52.6,58.7,54.7,50.8,95,72,42,30.06,29.99,7,1,11,0.00
2014-8-6,82.0,65.1,50.4,60.2,55.1,49.6,99,74,42,30.04,29.99,6,0,9,0.00
2014-8-7,80.1,65.1,48.9,60.8,55.2,48.4,99,74,38,30.11,30.02,8,1,11,0.00
2014-8-8,82.2,66.5,51.1,62.1,56.1,50.5,99,74,37,30.10,30.03,10,1,13,0.00
2014-8-9,83.2,66.2,50.7,64.8,56.8,50.2,100,76,35,30.12,30.05,11,1,14,0.00
2014-8-10,82.0,66.9,54.2,63.1,58.5,53.7,98,77,48,30.07,29.94,9,1,13,0.00
2014-8-11,76.7,63.4,53.8,64.1,58.9,53.0,99,87,57,29.94,29.78,11,1,14,0.14
2014-8-12,67.3,56.9,49.6,56.3,52.3,48.2,97,86,59,29.85,29.74,12,3,20,0.01
2014-8-13,72.0,58.2,47.1,56.7,50.3,45.4,99,77,52,30.03,29.84,14,2,16,0.00
2014-8-14,69.8,55.6,41.8,52.1,44.3,37.6,99,71,32,30.08,29.97,13,2,18,0.00
2014-8-15,78.3,60.0,40.9,57.6,49.7,40.3,99,73,37,29.98,29.75,12,2,16,0.00
2014-8-16,72.0,65.4,53.9,67.1,59.6,50.7,94,82,67,29.94,29.66,8,2,15,0.01
2014-8-17,67.9,57.8,46.2,57.0,52.6,45.3,99,84,66,30.03,29.93,6,1,9,0.00
2014-8-18,62.6,56.2,45.4,62.3,55.6,44.9,99,98,94,29.94,29.65,11,2,11,0.11
2014-8-19,73.5,65.6,62.3,68.2,64.1,62.1,100,95,74,29.65,29.56,10,2,15,0.55
2014-8-20,69.8,63.1,59.5,64.5,61.7,59.2,99,95,81,29.88,29.65,5,0,6,0.04
2014-8-21,72.5,65.3,60.9,64.5,62.7,60.6,99,92,74,29.93,29.88,7,1,10,0.00
2014-8-22,79.2,70.0,63.4,70.9,65.7,62.2,97,87,70,29.95,29.85,6,1,11,0.00
2014-8-23,69.9,67.3,65.0,69.6,66.6,64.7,100,98,89,30.02,29.93,6,1,9,1.20
2014-8-24,76.7,68.9,64.7,67.9,65.6,64.0,99,90,72,30.03,29.93,10,3,14,0.00
2014-8-25,82.2,71.2,65.0,71.4,67.9,63.8,100,90,69,29.94,29.81,15,3,16,0.50
2014-8-26,73.3,64.0,52.8,68.1,57.8,51.4,100,82,52,30.07,29.82,12,1,12,0.00
2014-8-27,71.6,58.5,49.2,58.0,52.3,47.3,99,82,53,30.14,30.07,4,1,11,0.02
2014-8-28,67.9,58.1,48.5,55.9,52.1,47.0,97,82,62,30.14,30.01,14,2,16,0.00
2014-8-29,67.8,62.7,57.2,67.6,62.3,55.5,100,98,93,30.01,29.75,9,2,14,0.45
2014-8-30,70.1,64.6,59.9,70.1,64.5,59.6,100,100,99,29.78,29.64,11,1,14,0.31
2014-8-31,67.1,62.6,59.3,62.6,60.6,59.3,100,94,80,29.88,29.75,9,2,12,0.00
2014-9-1,74.7,67.1,58.9,69.0,65.1,58.6,100,94,71,29.76,29.50,10,3,24,0.03
2014-9-2,76.5,62.8,51.7,61.7,57.3,51.7,100,84,52,29.79,29.67,10,2,15,0.01
2014-9-3,77.7,64.2,50.2,65.4,58.3,50.2,100,83,53,29.88,29.79,14,3,19,0.03
2014-9-4,72.7,67.1,61.2,69.9,34.0,61.2,100,51,90,29.88,29.59,5,0,10,1.12
2014-9-5,70.9,65.9,56.9,70.1,39.2,56.9,100,59,82,29.97,29.69,0,0,0,0.26
2014-9-6,71.1,58.9,48.0,71.1,56.2,48.0,100,92,58,30.02,29.96,0,0,0,0.02
2014-9-23,74.1,66.1,52.3,59.5,55.8,51.0,96,71,57,30.28,30.22,6,1,12,0.00
2014-9-24,69.3,56.6,44.5,59.0,52.2,43.7,98,86,64,30.35,30.28,8,1,10,0.00
2014-9-25,71.3,60.4,52.4,58.0,53.9,51.3,97,81,53,30.30,30.23,5,1,9,0.00
2014-9-26,74.8,58.3,44.7,58.8,51.8,43.9,98,82,49,30.30,30.24,5,1,8,0.00
2014-9-27,72.6,57.8,44.1,59.9,52.9,43.3,99,86,60,30.29,30.17,6,1,9,0.00
2014-9-28,76.6,61.7,49.4,64.6,56.9,48.6,99,86,62,30.18,29.99,6,1,9,0.00
2014-9-29,58.1,49.2,42.9,56.7,47.0,40.7,98,92,81,30.11,29.96,10,2,11,0.25
2014-9-30,53.4,47.0,42.3,47.3,43.5,40.4,95,88,76,30.12,30.07,7,1,9,0.00
2014-10-1,58.7,53.3,47.8,53.4,50.4,45.5,98,90,78,30.08,29.94,8,2,12,0.00
2014-10-2,59.6,57.1,54.2,59.3,56.1,52.3,99,97,92,29.94,29.60,4,1,7,0.09
2014-10-3,61.5,55.0,42.5,61.2,52.5,37.7,99,91,78,29.59,29.35,10,2,18,0.73
2014-10-4,45.5,41.5,38.4,43.6,39.7,36.6,98,93,83,29.58,29.48,9,1,9,0.28
2014-10-5,42.5,38.5,33.2,39.6,34.8,31.7,97,87,66,29.56,29.53,7,1,12,0.00
2014-10-6,57.3,44.6,35.2,39.8,34.4,29.9,95,71,36,29.54,29.44,10,2,14,0.00
2014-10-7,59.0,49.0,42.3,44.3,38.7,33.4,94,70,41,29.70,29.43,8,1,14,0.02
2014-10-8,52.3,43.7,35.6,36.2,33.2,28.6,91,68,43,29.93,29.70,9,2,17,0.00
2014-10-9,53.9,42.5,31.5,40.8,35.0,29.2,96,76,53,30.16,29.92,11,1,13,0.00
2014-10-10,55.3,42.6,31.6,40.9,35.7,30.6,98,79,47,30.22,30.15,7,1,11,0.00
2014-10-11,54.8,41.3,31.3,39.2,35.6,30.3,98,82,45,30.27,30.14,6,1,8,0.00
2014-10-12,59.0,44.8,31.4,48.3,39.0,30.6,98,82,45,30.14,29.96,10,1,17,0.00
2014-10-13,54.3,50.4,45.5,51.9,48.8,43.3,98,94,90,29.96,29.69,3,0,6,0.36
2014-10-14,52.5,50.2,48.5,51.3,48.8,47.1,98,95,90,29.79,29.60,11,2,16,0.86
2014-10-15,51.4,48.0,46.0,50.7,47.2,45.3,98,97,89,29.91,29.75,10,2,12,0.57
2014-10-16,53.0,49.5,46.5,51.6,48.8,46.0,99,98,93,29.88,29.59,2,0,7,0.09
2014-10-17,51.3,47.0,42.0,49.5,45.6,40.5,99,95,87,29.83,29.45,6,1,15,0.04
2014-10-18,45.3,39.1,27.9,40.8,34.6,26.9,97,84,66,30.21,29.84,9,2,16,0.00
2014-10-19,50.4,39.3,25.9,47.6,36.2,24.9,99,90,64,30.20,29.76,10,1,11,0.05
2014-10-20,48.8,46.3,43.1,46.2,43.9,40.5,97,92,85,30.05,29.75,8,1,12,0.00
2014-10-21,52.0,42.9,28.8,41.6,35.7,26.9,97,78,38,30.35,30.05,6,1,9,0.00
2014-10-22,50.0,36.2,24.8,41.0,32.1,23.6,98,86,64,30.43,30.29,9,1,13,0.00
2014-10-23,55.5,41.0,27.0,48.9,38.5,26.3,99,91,65,30.29,30.03,7,1,10,0.02
2014-10-24,54.5,48.5,45.2,50.1,47.1,44.7,98,95,82,30.03,29.80,7,1,8,0.01
2014-10-25,63.3,52.9,42.8,49.8,39.0,28.4,99,65,28,29.85,29.71,10,2,21,0.00
2014-10-26,59.3,44.9,33.2,41.2,34.9,30.4,94,70,38,29.94,29.84,7,1,9,0.00
2014-10-27,52.6,45.2,32.4,47.8,43.1,31.3,98,92,76,29.90,29.59,9,1,14,0.66
2014-10-28,56.4,48.8,42.8,48.2,43.6,37.5,98,84,54,29.72,29.48,10,2,17,0.46
2014-10-29,47.2,41.7,31.1,38.7,35.6,29.8,96,79,65,30.12,29.72,7,2,12,0.00
2014-10-30,45.5,40.2,31.1,38.4,36.3,30.1,98,86,71,30.12,29.99,7,1,10,0.00
2014-10-31,39.5,33.7,31.2,36.2,29.4,23.3,95,84,62,30.48,29.99,9,2,16,0.09
2014-11-1,43.5,33.6,26.7,28.8,27.0,24.5,94,78,47,30.51,30.37,4,1,8,0.00
2014-11-2,48.9,38.8,26.3,40.5,31.8,24.5,95,77,49,30.37,30.08,11,2,14,0.00
2014-11-3,52.7,43.5,31.3,45.0,35.5,28.7,96,75,47,30.08,29.79,8,1,14,0.05
2014-11-4,49.2,44.9,37.9,48.4,41.5,32.5,97,88,69,29.83,29.65,10,2,18,0.24
2014-11-5,42.9,38.7,33.2,35.3,32.8,30.3,97,80,62,30.04,29.83,6,1,10,0.06
2014-11-6,38.9,34.7,31.3,34.4,32.5,30.0,98,92,77,30.18,29.95,6,1,10,0.13
2014-11-7,39.3,32.4,22.3,35.7,29.3,21.1,98,89,71,30.18,29.80,9,1,12,0.02
2014-11-8,40.4,33.9,25.3,36.6,30.2,21.9,97,87,61,29.87,29.60,10,2,20,0.00
2014-11-9,40.3,31.5,22.4,32.3,25.2,17.2,94,79,42,29.92,29.68,7,1,12,0.00
2014-11-10,32.6,28.8,21.7,31.6,26.4,18.4,96,91,74,29.98,29.74,7,1,14,0.00
2014-11-11,33.0,30.4,23.4,32.2,29.1,21.7,97,95,91,29.96,29.72,4,1,11,0.00
2014-11-12,35.0,24.4,17.8,26.4,21.3,16.3,95,88,66,30.20,29.96,8,1,10,0.00
2014-11-13,32.0,22.6,13.2,24.9,18.8,11.3,93,85,70,30.21,30.15,8,1,13,0.00
2014-11-14,34.5,23.3,13.9,23.3,17.5,12.1,94,79,55,30.31,30.21,7,1,11,0.00
2014-11-15,27.8,20.1,7.4,15.9,11.9,4.8,91,71,50,30.31,30.19,10,2,13,0.00
2014-11-16,30.9,23.1,18.8,22.0,18.4,13.8,91,82,66,30.19,29.78,12,2,17,0.00
2014-11-17,25.7,17.5,10.4,17.0,9.9,6.0,88,72,53,29.78,29.62,11,2,17,0.00
2014-11-18,24.7,17.0,9.4,14.3,8.8,3.0,81,70,51,29.97,29.64,10,3,20,0.00
2014-11-19,22.3,15.2,3.8,18.4,11.5,0.8,90,85,78,29.95,29.65,7,1,12,0.00
2014-11-20,22.6,13.9,1.9,14.5,7.2,-1.5,89,75,52,30.23,29.75,10,2,13,0.00
2014-11-21,28.6,16.4,-1.3,14.0,5.9,-4.7,92,65,46,30.40,30.03,10,2,16,0.00
2014-11-22,38.8,33.1,28.4,34.9,27.4,13.1,97,80,52,30.02,29.75,9,2,13,0.00
2014-11-23,43.8,39.9,35.6,43.5,39.4,34.5,99,98,95,29.79,29.25,7,1,13,0.33
2014-11-24,40.1,34.9,27.7,39.8,33.5,26.7,99,95,83,29.55,28.98,8,1,13,0.32
2014-11-25,28.9,22.0,4.3,26.7,18.8,2.0,96,88,70,30.20,29.55,14,1,16,0.10
2014-11-26,27.0,12.7,-1.2,19.9,9.6,-4.1,96,87,72,30.26,30.21,4,0,6,0.01
2014-11-27,24.2,14.0,-0.2,22.5,8.2,-2.9,96,78,59,30.42,30.22,7,1,16,0.00
2014-11-28,30.7,13.0,-0.9,28.7,9.1,-3.6,97,85,60,30.39,29.93,6,1,11,0.00
2014-11-29,38.3,32.9,24.5,37.3,31.2,23.0,98,94,84,29.94,29.49,8,2,14,0.02
2014-11-30,35.5,27.8,13.7,33.7,23.2,7.9,98,83,69,30.28,29.49,11,1,14,0.02
2014-12-1,14.5,6.5,-5.2,7.9,-1.8,-8.5,86,69,49,30.75,30.29,12,3,15,0.00
2014-12-2,28.6,18.7,-4.5,24.2,15.4,-7.6,93,87,79,30.67,29.95,9,1,11,0.00
2014-12-3,25.9,21.3,14.7,21.1,14.5,8.3,91,75,59,30.33,29.92,14,2,19,0.00
2014-12-4,25.0,14.5,-1.9,19.1,8.4,-5.5,89,77,58,30.50,30.33,8,1,11,0.00
2014-12-5,35.2,26.6,15.1,29.6,23.1,12.4,94,86,77,30.34,30.18,4,0,8,0.01
2014-12-6,34.3,22.4,12.4,24.4,17.8,10.5,95,84,55,30.75,30.34,5,0,8,0.00
2014-12-7,34.2,22.1,6.7,29.4,18.0,4.2,91,84,72,30.76,30.29,9,2,16,0.00
2014-12-8,36.1,33.2,32.1,32.5,31.4,27.5,98,93,76,30.29,29.96,8,1,11,0.00
2014-12-9,33.4,28.9,25.8,32.9,26.9,23.2,98,92,86,30.49,30.11,10,2,12,0.00
2014-12-10,32.5,23.8,10.9,25.1,20.6,8.9,94,88,70,30.48,30.31,4,0,7,0.00
2014-12-11,38.8,19.1,7.2,27.1,15.3,4.9,97,86,53,30.31,30.13,4,0,8,0.00
2014-12-12,35.0,24.7,19.1,27.3,22.4,17.4,98,91,71,30.25,30.14,3,0,6,0.00
2014-12-13,42.3,32.6,27.5,37.5,31.5,26.3,98,96,82,30.14,29.95,5,1,7,0.00
2014-12-14,40.3,35.7,32.9,39.8,35.2,32.4,99,98,96,30.04,29.96,3,0,4,0.00
2014-12-15,41.8,38.0,34.6,41.5,37.7,34.3,99,99,99,29.97,29.79,9,0,9,0.08
2014-12-16,37.2,33.5,28.4,36.9,32.8,27.1,99,98,94,29.97,29.75,8,1,12,0.41
2014-12-17,29.4,27.4,25.4,27.1,25.6,23.2,96,92,89,30.25,29.97,9,2,11,0.00
2014-12-18,32.6,23.3,10.8,24.6,19.2,8.9,95,85,58,30.34,30.25,5,1,7,0.02
2014-12-19,29.5,17.3,5.1,25.0,14.1,2.3,94,87,78,30.37,30.31,3,0,4,0.01
2014-12-20,28.9,19.9,7.1,25.8,17.3,4.8,94,90,81,30.33,30.26,3,0,5,0.00
2014-12-21,36.2,31.9,26.6,34.9,30.5,25.1,97,94,89,30.27,30.01,10,1,14,0.01
2014-12-22,36.7,34.4,32.7,34.2,32.9,31.2,97,94,84,30.01,29.88,12,2,14,0.00
2014-12-23,35.2,33.9,32.6,34.7,33.3,31.7,99,98,96,29.87,29.68,9,2,12,0.00
2014-12-24,35.3,33.6,32.2,35.0,33.0,30.3,99,98,92,29.79,29.43,5,1,10,0.00
2014-12-25,37.3,34.1,31.8,32.4,31.3,30.1,97,90,81,29.98,29.44,9,2,11,0.00
2014-12-26,35.1,32.8,30.8,33.8,32.2,30.3,99,97,95,30.09,29.97,2,0,2,0.00
2014-12-27,33.8,32.0,25.7,33.0,31.2,23.4,99,97,90,30.08,29.78,6,0,8,0.00
2014-12-28,27.6,17.8,2.4,23.1,14.6,-0.8,92,87,73,30.33,30.01,9,1,11,0.00
2014-12-29,16.7,5.3,-2.1,9.6,1.7,-5.0,91,85,69,30.59,30.33,7,0,11,0.00
2014-12-30,13.4,3.5,-4.7,6.7,-0.9,-8.3,88,82,71,30.64,30.53,10,1,12,0.00
2014-12-31,9.0,0.5,-7.5,2.9,-4.3,-11.8,88,80,70,30.54,29.93,13,2,15,0.00
2015-1-1,27.2,13.7,-4.4,22.0,9.6,-8.0,92,84,71,30.10,29.76,9,2,12,0.00
2015-1-2,20.3,10.6,-1.7,16.2,6.1,-4.4,91,82,68,30.33,30.10,4,0,8,0.00